Hlavní strana
METAR-TAF:

METAR-TAF

Letiště :

Petropavl, Kazachstán

zeměpisná šířka: 54-46-28N, zeměpisná délka: 069-11-06E, výška: 139 m

Aktuální stav počasí

Zpráva byla vytvořena před 48 minutami, v 11:30 UTC
Západojihozápadní vítr 6 kt, proměnlivý mezi jihozápadním a západním
Teplota 14°C
Vlhkost vzduchu 38%
Tlak 1012 hPa
Viditelnost 10 km a více
Polojasno ve výšce 5000 ft, Cumulonimbus.

METAR: UACP 231130Z 25003MPS 220V280 9999 SCT050CB 14/M00 Q1012 R23/0/0060 NOSIG RMK QFE747/0996

Čas: 18:18 (12:18 UTC)

Předpověď počasí

Zpráva byla vytvořena před 4 hodinami a 17 minutami, v 08:01 UTC
Předpověď platná od 23 v 09 UTC do 23 v 18 UTC
Jihojihozápadní vítr 12 kt
Viditelnost 10 km a více
Polojasno ve výšce 2000 ft
Oblačno až skoro zataženo ve výšce 4000 ft, Cumulonimbus.
Dočasný
od 23 v 09 UTC do 23 v 12 UTC
Západojihozápadní vítr 16 kt

TAF: UACP 230801Z 2309/2318 21006MPS 9999 SCT020 BKN040CB TEMPO 2309/2312 24008MPS

Stav a předpovědi počasí z více než 4 000 letišť (zprávy METAR a TAF).

Červené a žluté tečky na mapě představují dostupné meteorologické stanice.

Když kurzor umístíte na tečku, zobrazí se název stanice.

Pak kliknutím zobrazíte stav a předpověď počasí.

Chcete-li změnit mapu, kliknutím na zelené tlačítko se znaménkem +mapu přiblížíte, kliknutím na zelené tlačítko se znaménkem – mapu oddálíte a kliknutím na zelené šipky přejdete na sousední mapy.


METAR-TAF: